Crystal Falls, MI (49920)

6:48 AM CST on January 26, 2015 (GMT -0600)
APRSWXNET Peavy Falls MI US | Change Station
CLOSE
Current Station
Personal Weather Station
Location: Florence, WI
Elevation: 1258 ft
Nearby Weather Stations

Elev 1258 ft 46.00 °N, 88.16 °W | Updated 33 minutes ago

Overcast
Overcast
1 °F
Feels Like 1 °F
N
0
Wind Variable Wind from SW
Gusts 0.0 mph

Today
High -- | Low -- °F
--% Chance of Precip.
Yesterday
High -- | Low -- °F
Precip. -- in
7:22 AM 4:49 PM
Waxing Crescent, 43% visible
Pressure 29.96 in
Visibility 10.0 miles
Clouds Mostly Cloudy 6500 ft
Overcast 8000 ft
Windchill 1 °F
Dew Point -2 °F
Humidity 87%
Rainfall 0.00 in
Snow Depth Not available.
UV 0 out of 12
Pollen .10 out of 12
Air Quality Not available.
Flu Activity Not available.
METAR KIMT 261154Z AUTO 00000KT 10SM BKN065 OVC080 M14/M17 A2987 RMK AO2 SLP144 T11441167 11144 21194 56020

More Conditions Fewer Conditions

Pressure 29.96 in
Visibility 10.0 miles
Clouds Mostly Cloudy 6500 ft
Overcast 8000 ft
Windchill 1 °F
Dew Point -2 °F
Humidity 87%
Rainfall 0.00 in
Snow Depth Not available.
UV 0 out of 12
Pollen .10 out of 12
Air Quality Not available.
Flu Activity Not available.
METAR KIMT 261154Z AUTO 00000KT 10SM BKN065 OVC080 M14/M17 A2987 RMK AO2 SLP144 T11441167 11144 21194 56020

More Conditions Fewer Conditions

10-Day Weather Forecast

Almanac

Astronomy

Jan. 26, 2015 Rise Set
Actual Time
Civil Twilight
Nautical Twilight
Astronomical Twilight
Moon
Length of Visible Light
Length of Day
Tomorrow will be .
, % of the Moon is Illuminated

Today's Extremes

State Highs State Lows

Community

WunderPhotos

Upload Photos

1,790,175 photos uploaded!

WunderBlogs® & News

Nearby

Air Quality

  Air Quality AQ Index Pollutant
Not available.

Snow Depth

Station Depth Elevation

Earthquake Activity

City Distance Mag. Time & Date
Minimum magnitude displayed is 2.5.

Coastal Water Temperatures

Place Temperature

Nearby Weather Stations